Capua (LIAU) weather

Grazzanise LIRM

Available data for LIRM from the past 2 hours
GRAZZANISE (IT-A
Metar
LIRM 221955Z 03004KT 9999 SCT030 SCT086 21/20 Q1015 RMK BKN VIS MIN 9999 WIND THR06 01002KT BLU

19:55 UTC

Wind: 30° 4kt

Visibility: 9999 m

Sky: SCT 3000 ft

Temp: 21 deg C / 69.8 deg F

Dewpoint: 20 deg C / 68 deg F

Pressure: 1015 hPa

TAF
TAF LIRM 221700Z 2218/2303 05007KT 8000 RA SCT030 SCT040 TEMPO 2218/2221 5000 TSRA BR FEW020CB SCT030

Capua Weather Station






top